createdAt,value
2022-12-29T00:02:15.842Z,54.39
2022-12-29T00:04:42.597Z,54.19
2022-12-29T00:07:09.788Z,54.44
2022-12-29T00:09:36.601Z,54.40
2022-12-29T00:12:04.196Z,54.61
2022-12-29T00:14:49.704Z,54.36
2022-12-29T00:17:16.679Z,54.50
2022-12-29T00:20:03.587Z,54.56
2022-12-29T00:22:48.923Z,54.09
2022-12-29T00:25:34.308Z,54.30
2022-12-29T00:28:20.000Z,54.27
2022-12-29T00:31:05.216Z,54.42
2022-12-29T00:33:51.979Z,54.54
2022-12-29T00:36:38.340Z,54.26
2022-12-29T00:39:27.395Z,54.47
2022-12-29T00:42:12.761Z,54.07
2022-12-29T00:44:39.786Z,54.18
2022-12-29T00:47:06.600Z,54.17
2022-12-29T00:49:34.441Z,54.21
2022-12-29T00:52:05.162Z,54.12
2022-12-29T00:54:33.905Z,54.10
2022-12-29T00:57:00.914Z,54.13
2022-12-29T00:59:28.184Z,53.88
2022-12-29T01:01:55.278Z,53.88
2022-12-29T01:04:23.689Z,54.25
2022-12-29T01:06:50.596Z,54.33
2022-12-29T01:09:36.855Z,54.24
2022-12-29T01:12:04.468Z,53.89
2022-12-29T01:14:31.615Z,54.09
2022-12-29T01:16:58.530Z,53.91
2022-12-29T01:19:25.663Z,54.01
2022-12-29T01:21:52.676Z,53.75
2022-12-29T01:24:20.394Z,54.00
2022-12-29T01:26:47.211Z,53.83
2022-12-29T01:29:14.418Z,53.63
2022-12-29T01:31:41.247Z,53.67
2022-12-29T01:34:08.358Z,53.62
2022-12-29T01:36:35.215Z,53.47
2022-12-29T01:39:02.308Z,53.54
2022-12-29T01:41:29.123Z,53.55
2022-12-29T01:43:57.875Z,53.70
2022-12-29T01:46:51.024Z,53.33
2022-12-29T01:49:20.489Z,53.52
2022-12-29T01:51:57.127Z,53.40
2022-12-29T01:54:29.471Z,53.58
2022-12-29T01:57:00.833Z,53.62
2022-12-29T01:59:33.637Z,53.64
2022-12-29T02:02:00.467Z,53.58
2022-12-29T02:04:27.697Z,53.33
2022-12-29T02:06:56.785Z,53.46
2022-12-29T02:09:24.574Z,53.38
2022-12-29T02:11:51.410Z,53.21
2022-12-29T02:14:18.457Z,53.32
2022-12-29T02:16:57.359Z,53.25
2022-12-29T02:19:24.465Z,53.15
2022-12-29T02:21:57.226Z,52.68
2022-12-29T02:24:45.494Z,53.09
2022-12-29T02:27:24.221Z,52.96
2022-12-29T02:29:51.256Z,52.92
2022-12-29T02:32:39.311Z,53.07
2022-12-29T02:35:15.708Z,53.24
2022-12-29T02:38:35.163Z,53.08
2022-12-29T02:41:22.417Z,53.32
2022-12-29T02:44:00.325Z,53.32
2022-12-29T02:46:30.660Z,53.02
2022-12-29T02:49:21.427Z,53.41
2022-12-29T02:52:01.503Z,53.15
2022-12-29T02:54:43.418Z,53.15
2022-12-29T02:57:23.137Z,53.20
2022-12-29T03:00:03.748Z,53.61
2022-12-29T03:03:07.733Z,53.47
2022-12-29T03:05:56.038Z,53.77
2022-12-29T03:08:33.188Z,53.62
2022-12-29T03:11:03.732Z,53.43
2022-12-29T03:13:57.959Z,53.47
2022-12-29T03:16:30.128Z,53.86
2022-12-29T03:19:09.447Z,54.19
2022-12-29T03:22:31.968Z,53.67
2022-12-29T03:25:07.571Z,53.64
2022-12-29T03:27:37.644Z,53.61
2022-12-29T03:30:05.799Z,53.35
2022-12-29T03:32:35.022Z,53.52
2022-12-29T03:35:02.697Z,53.90
2022-12-29T03:37:37.059Z,53.79
2022-12-29T03:40:05.105Z,53.67
2022-12-29T03:42:32.302Z,53.64
2022-12-29T03:44:59.358Z,53.75
2022-12-29T03:47:26.211Z,53.39
2022-12-29T03:49:53.268Z,53.41
2022-12-29T03:52:20.169Z,53.32
2022-12-29T03:54:48.006Z,53.70
2022-12-29T03:57:14.741Z,53.50
2022-12-29T03:59:41.761Z,53.63
2022-12-29T04:02:08.554Z,53.54
2022-12-29T04:04:35.648Z,53.26
2022-12-29T04:07:02.380Z,53.31
2022-12-29T04:09:30.840Z,53.77
2022-12-29T04:11:57.564Z,53.68
2022-12-29T04:14:24.590Z,53.68
2022-12-29T04:16:51.351Z,53.47
2022-12-29T04:19:18.430Z,53.48
2022-12-29T04:21:45.341Z,53.21
2022-12-29T04:24:13.938Z,53.28
2022-12-29T04:26:40.924Z,53.21
2022-12-29T04:29:07.952Z,53.39
2022-12-29T04:31:34.712Z,52.93
2022-12-29T04:34:01.749Z,53.09
2022-12-29T04:36:30.211Z,53.42
2022-12-29T04:38:57.719Z,53.27
2022-12-29T04:41:24.568Z,53.73
2022-12-29T04:43:51.722Z,53.26
2022-12-29T04:46:18.587Z,53.30
2022-12-29T04:48:45.822Z,53.65
2022-12-29T04:51:12.533Z,53.00
2022-12-29T04:53:39.718Z,53.10
2022-12-29T04:56:06.727Z,53.09
2022-12-29T04:58:33.757Z,53.32
2022-12-29T05:01:00.489Z,53.33
2022-12-29T05:03:27.644Z,53.11
2022-12-29T05:05:56.124Z,53.21
2022-12-29T05:08:28.038Z,53.29
2022-12-29T05:10:55.433Z,53.58
2022-12-29T05:13:22.522Z,53.51
2022-12-29T05:15:52.817Z,53.70
2022-12-29T05:18:19.972Z,53.52
2022-12-29T05:20:47.111Z,53.45
2022-12-29T05:23:14.500Z,53.47
2022-12-29T05:25:41.268Z,53.30
2022-12-29T05:28:08.357Z,53.53
2022-12-29T05:30:35.076Z,53.33
2022-12-29T05:33:02.215Z,53.26
2022-12-29T05:35:29.416Z,53.27
2022-12-29T05:37:56.482Z,53.58
2022-12-29T05:40:23.244Z,53.34
2022-12-29T05:42:50.307Z,53.13
2022-12-29T05:45:17.099Z,53.35
2022-12-29T05:47:45.479Z,53.14
2022-12-29T05:50:12.283Z,53.33
2022-12-29T05:52:39.297Z,53.44
2022-12-29T05:55:06.678Z,53.41
2022-12-29T05:57:33.713Z,53.32
2022-12-29T06:00:00.491Z,53.07
2022-12-29T06:02:27.705Z,53.40
2022-12-29T06:04:54.569Z,53.72
2022-12-29T06:07:21.621Z,53.83
2022-12-29T06:09:48.358Z,53.82
2022-12-29T06:12:15.433Z,53.48
2022-12-29T06:14:42.223Z,53.58
2022-12-29T06:17:09.262Z,53.41
2022-12-29T06:19:36.113Z,53.53
2022-12-29T06:22:03.130Z,53.41
2022-12-29T06:24:29.843Z,53.34
2022-12-29T06:26:56.930Z,53.67
2022-12-29T06:29:23.656Z,53.43
2022-12-29T06:31:52.164Z,53.36
2022-12-29T06:34:18.974Z,53.41
2022-12-29T06:36:46.012Z,53.71
2022-12-29T06:39:12.853Z,53.67
2022-12-29T06:41:39.902Z,53.30
2022-12-29T06:44:06.728Z,53.32
2022-12-29T06:46:34.381Z,53.39
2022-12-29T06:49:01.187Z,53.37
2022-12-29T06:51:28.251Z,53.52
2022-12-29T06:53:55.065Z,53.21
2022-12-29T06:56:22.105Z,53.06
2022-12-29T06:58:48.844Z,53.48
2022-12-29T07:01:15.995Z,53.29
2022-12-29T07:03:43.739Z,53.22
2022-12-29T07:06:10.768Z,53.52
2022-12-29T07:08:37.561Z,53.51
2022-12-29T07:11:04.777Z,53.81
2022-12-29T07:13:31.519Z,53.59
2022-12-29T07:15:58.603Z,53.71
2022-12-29T07:18:25.439Z,53.44
2022-12-29T07:20:52.543Z,53.30
2022-12-29T07:23:19.333Z,53.67
2022-12-29T07:25:46.384Z,53.47
2022-12-29T07:28:13.149Z,53.39
2022-12-29T07:30:40.249Z,53.10
2022-12-29T07:33:06.976Z,53.04
2022-12-29T07:35:37.185Z,53.30
2022-12-29T07:38:03.996Z,53.21
2022-12-29T07:40:31.071Z,53.08
2022-12-29T07:42:57.810Z,53.00
2022-12-29T07:45:24.881Z,53.34
2022-12-29T07:47:51.725Z,53.25
2022-12-29T07:50:18.854Z,53.04
2022-12-29T07:52:47.117Z,53.08
2022-12-29T07:55:14.808Z,53.17
2022-12-29T07:57:41.616Z,53.24
2022-12-29T08:00:10.541Z,52.93
2022-12-29T08:02:37.450Z,53.03
2022-12-29T08:05:05.208Z,53.11
2022-12-29T08:07:31.941Z,52.89
2022-12-29T08:09:58.973Z,52.78
2022-12-29T08:12:25.735Z,53.16
2022-12-29T08:14:52.762Z,53.17
2022-12-29T08:17:19.491Z,52.96
2022-12-29T08:19:46.540Z,52.96
2022-12-29T08:22:14.925Z,53.06
2022-12-29T08:24:42.006Z,53.22
2022-12-29T08:27:16.239Z,52.64
2022-12-29T08:29:47.254Z,52.51
2022-12-29T08:32:14.213Z,52.71
2022-12-29T08:34:41.316Z,53.51
2022-12-29T08:37:08.075Z,53.22
2022-12-29T08:39:35.671Z,53.69
2022-12-29T08:42:02.546Z,53.35
2022-12-29T08:44:29.660Z,53.63
2022-12-29T08:46:56.532Z,53.71
2022-12-29T08:49:23.689Z,53.58
2022-12-29T08:51:50.663Z,53.17
2022-12-29T08:54:17.788Z,53.34
2022-12-29T08:56:44.522Z,53.37
2022-12-29T08:59:11.606Z,53.38
2022-12-29T09:01:41.526Z,53.38
2022-12-29T09:04:17.802Z,53.13
2022-12-29T09:06:45.870Z,53.29
2022-12-29T09:09:13.323Z,52.99
2022-12-29T09:11:40.166Z,52.95
2022-12-29T09:14:07.249Z,52.87
2022-12-29T09:16:34.369Z,52.87
2022-12-29T09:19:01.850Z,52.75
2022-12-29T09:21:28.592Z,52.51
2022-12-29T09:23:55.649Z,52.81
2022-12-29T09:26:22.413Z,52.37
2022-12-29T09:28:49.544Z,52.75
2022-12-29T09:31:16.360Z,52.68
2022-12-29T09:33:43.484Z,52.73
2022-12-29T09:36:10.428Z,52.63
2022-12-29T09:38:37.525Z,52.38
2022-12-29T09:41:26.356Z,52.94
2022-12-29T09:44:17.437Z,52.79
2022-12-29T09:46:46.001Z,52.42
2022-12-29T09:49:24.645Z,52.18
2022-12-29T09:51:54.450Z,52.10
2022-12-29T09:54:40.453Z,52.22
2022-12-29T09:57:19.246Z,52.16
2022-12-29T09:59:46.362Z,52.39
2022-12-29T10:02:15.975Z,52.18
2022-12-29T10:04:43.139Z,52.46
2022-12-29T10:07:34.206Z,52.73
2022-12-29T10:10:20.039Z,52.29
2022-12-29T10:12:52.733Z,52.40
2022-12-29T10:15:41.803Z,52.33
2022-12-29T10:18:36.344Z,52.61
2022-12-29T10:21:12.519Z,52.78
2022-12-29T10:23:52.902Z,52.57
2022-12-29T10:26:25.082Z,52.12
2022-12-29T10:28:55.585Z,52.83
2022-12-29T10:31:24.226Z,52.01
2022-12-29T10:33:54.890Z,51.80
2022-12-29T10:36:48.364Z,51.77
2022-12-29T10:39:38.308Z,51.34
2022-12-29T10:42:30.008Z,51.03
2022-12-29T10:44:57.035Z,51.36
2022-12-29T10:47:26.450Z,51.27
2022-12-29T10:49:53.215Z,51.05
2022-12-29T10:52:21.109Z,51.04
2022-12-29T10:54:57.224Z,50.89
2022-12-29T10:57:29.805Z,50.84
2022-12-29T10:59:56.557Z,51.00
2022-12-29T11:02:42.381Z,50.70
2022-12-29T11:05:12.283Z,50.79
2022-12-29T11:07:39.320Z,50.15
2022-12-29T11:10:37.716Z,50.30
2022-12-29T11:13:11.656Z,50.64
2022-12-29T11:15:43.192Z,50.50
2022-12-29T11:18:26.737Z,50.38
2022-12-29T11:21:00.472Z,49.88
2022-12-29T11:23:32.615Z,50.13
2022-12-29T11:26:11.806Z,49.88
2022-12-29T11:28:39.423Z,49.45
2022-12-29T11:31:07.441Z,49.58
2022-12-29T11:33:39.197Z,49.56
2022-12-29T11:36:17.701Z,49.92
2022-12-29T11:38:48.720Z,49.76
2022-12-29T11:41:24.062Z,49.54
2022-12-29T11:43:51.120Z,49.72
2022-12-29T11:46:22.712Z,49.55
2022-12-29T11:48:50.632Z,49.71
2022-12-29T11:51:25.345Z,49.33
2022-12-29T11:53:54.635Z,49.30
2022-12-29T11:56:24.672Z,49.18
2022-12-29T11:58:51.886Z,48.91
2022-12-29T12:01:18.713Z,49.30
2022-12-29T12:03:54.139Z,49.22
2022-12-29T12:06:21.780Z,49.33
2022-12-29T12:08:53.134Z,49.20
2022-12-29T12:11:21.499Z,49.14
2022-12-29T12:14:01.923Z,49.14
2022-12-29T12:16:34.632Z,49.12
2022-12-29T12:19:39.863Z,49.40
2022-12-29T12:22:32.112Z,49.21
2022-12-29T12:25:00.262Z,48.92
2022-12-29T12:27:32.699Z,49.07
2022-12-29T12:30:12.507Z,49.18
2022-12-29T12:32:53.534Z,48.90
2022-12-29T12:35:59.669Z,49.13
2022-12-29T12:38:51.282Z,49.29
2022-12-29T12:41:36.722Z,49.35
2022-12-29T12:44:17.607Z,49.29
2022-12-29T12:47:03.082Z,49.28
2022-12-29T12:49:54.439Z,49.26
2022-12-29T12:52:33.539Z,49.02
2022-12-29T12:55:40.846Z,49.15
2022-12-29T12:58:24.219Z,49.51
2022-12-29T13:01:12.364Z,49.25
2022-12-29T13:03:51.390Z,49.45
2022-12-29T13:06:36.489Z,49.09
2022-12-29T13:09:06.280Z,49.39
2022-12-29T13:11:46.370Z,49.31
2022-12-29T13:14:20.512Z,49.25
2022-12-29T13:17:02.584Z,49.53
2022-12-29T13:19:34.668Z,49.35
2022-12-29T13:22:10.771Z,49.10
2022-12-29T13:24:48.204Z,49.23
2022-12-29T13:27:30.713Z,49.63
2022-12-29T13:30:15.508Z,49.56
2022-12-29T13:33:00.652Z,49.65
2022-12-29T13:35:35.166Z,50.08
2022-12-29T13:38:27.063Z,49.32
2022-12-29T13:41:01.496Z,49.55
2022-12-29T13:43:28.575Z,49.75
2022-12-29T13:46:11.999Z,49.59
2022-12-29T13:48:43.586Z,49.53
2022-12-29T13:51:10.894Z,49.72
2022-12-29T13:53:50.303Z,49.73
2022-12-29T13:56:21.739Z,49.90
2022-12-29T13:58:57.361Z,49.78
2022-12-29T14:01:43.825Z,49.67
2022-12-29T14:04:13.889Z,49.52
2022-12-29T14:06:43.957Z,49.66
2022-12-29T14:09:35.827Z,49.24
2022-12-29T14:12:04.124Z,49.62
2022-12-29T14:14:31.079Z,50.02
2022-12-29T14:17:20.203Z,49.57
2022-12-29T14:19:46.951Z,49.84
2022-12-29T14:22:14.201Z,49.95
2022-12-29T14:24:46.588Z,49.54
2022-12-29T14:27:13.718Z,49.82
2022-12-29T14:29:40.508Z,49.55
2022-12-29T14:32:34.022Z,49.55
2022-12-29T14:35:02.177Z,49.69
2022-12-29T14:37:36.135Z,50.00
2022-12-29T14:40:02.928Z,49.82
2022-12-29T14:42:30.634Z,49.66
2022-12-29T14:45:15.667Z,49.99
2022-12-29T14:47:44.486Z,49.83
2022-12-29T14:50:24.378Z,49.84
2022-12-29T14:53:03.458Z,50.02
2022-12-29T14:55:47.859Z,49.94
2022-12-29T14:58:20.224Z,49.78
2022-12-29T15:00:47.499Z,49.79
2022-12-29T15:03:21.415Z,49.79
2022-12-29T15:05:49.716Z,49.66
2022-12-29T15:08:22.498Z,49.74
2022-12-29T15:10:53.595Z,49.77
2022-12-29T15:13:40.955Z,50.02
2022-12-29T15:16:31.371Z,49.71
2022-12-29T15:19:02.153Z,49.64
2022-12-29T15:21:31.205Z,49.70
2022-12-29T15:23:58.288Z,49.62
2022-12-29T15:26:25.453Z,49.69
2022-12-29T15:28:53.364Z,49.79
2022-12-29T15:31:30.153Z,50.23
2022-12-29T15:34:13.394Z,50.08
2022-12-29T15:36:40.823Z,49.81
2022-12-29T15:39:21.129Z,50.13
2022-12-29T15:42:05.118Z,50.12
2022-12-29T15:44:40.381Z,50.01
2022-12-29T15:47:14.871Z,49.83
2022-12-29T15:49:43.321Z,50.16
2022-12-29T15:52:10.230Z,49.91
2022-12-29T15:54:37.483Z,49.87
2022-12-29T15:57:04.756Z,49.81
2022-12-29T16:03:43.184Z,49.74
2022-12-29T16:06:35.053Z,49.84
2022-12-29T16:09:16.036Z,49.87
2022-12-29T16:11:52.937Z,49.87
2022-12-29T16:14:21.548Z,49.66
2022-12-29T16:16:48.899Z,49.51
2022-12-29T16:19:30.037Z,49.88
2022-12-29T16:21:58.297Z,49.52
2022-12-29T16:24:27.881Z,49.31
2022-12-29T16:27:06.514Z,49.21
2022-12-29T16:29:33.830Z,49.26
2022-12-29T16:32:03.811Z,49.36
2022-12-29T16:34:48.794Z,49.27
2022-12-29T16:37:32.006Z,49.30
2022-12-29T16:40:31.531Z,49.35
2022-12-29T16:43:04.901Z,49.69
2022-12-29T16:45:47.195Z,49.62
2022-12-29T16:48:14.426Z,49.58
2022-12-29T16:50:42.814Z,49.50
2022-12-29T16:53:21.474Z,49.54
2022-12-29T16:55:48.890Z,49.50
2022-12-29T16:58:23.779Z,49.46
2022-12-29T17:00:51.030Z,49.43
2022-12-29T17:03:18.202Z,49.86
2022-12-29T17:05:44.974Z,49.72
2022-12-29T17:08:23.897Z,49.43
2022-12-29T17:11:14.467Z,49.48
2022-12-29T17:13:41.581Z,49.38
2022-12-29T17:16:08.914Z,49.74
2022-12-29T17:18:36.190Z,49.92
2022-12-29T17:21:03.106Z,50.13
2022-12-29T17:23:32.380Z,49.46
2022-12-29T17:25:59.172Z,49.81
2022-12-29T17:28:27.836Z,49.44
2022-12-29T17:30:56.543Z,49.24
2022-12-29T17:33:23.645Z,49.67
2022-12-29T17:35:55.198Z,49.79
2022-12-29T17:38:30.154Z,49.52
2022-12-29T17:40:57.063Z,49.91
2022-12-29T17:43:24.296Z,49.64
2022-12-29T17:45:53.435Z,49.62
2022-12-29T17:48:20.690Z,49.90
2022-12-29T17:50:52.697Z,49.80
2022-12-29T17:53:21.973Z,49.93
2022-12-29T17:55:48.809Z,49.83
2022-12-29T17:58:15.894Z,49.87
2022-12-29T18:00:42.681Z,50.54
2022-12-29T18:03:18.138Z,51.01
2022-12-29T18:05:45.097Z,51.26
2022-12-29T18:08:12.488Z,51.39
2022-12-29T18:10:39.288Z,51.85
2022-12-29T18:13:06.684Z,52.10
2022-12-29T18:15:35.391Z,51.31
2022-12-29T18:18:19.350Z,51.91
2022-12-29T18:20:46.739Z,52.97
2022-12-29T18:23:23.836Z,52.18
2022-12-29T18:26:02.424Z,51.97
2022-12-29T18:28:29.353Z,51.65
2022-12-29T18:30:57.409Z,51.97
2022-12-29T18:33:26.650Z,51.88
2022-12-29T18:36:01.769Z,51.91
2022-12-29T18:38:29.838Z,52.03
2022-12-29T18:40:57.208Z,52.38
2022-12-29T18:43:24.120Z,51.64
2022-12-29T18:45:51.290Z,51.92
2022-12-29T18:48:18.803Z,51.94
2022-12-29T18:50:47.189Z,52.49
2022-12-29T18:53:17.973Z,52.30
2022-12-29T18:55:45.164Z,53.04
2022-12-29T18:58:12.228Z,52.48
2022-12-29T19:00:39.614Z,52.06
2022-12-29T19:03:06.561Z,53.57
2022-12-29T19:05:38.292Z,52.51
2022-12-29T19:08:05.706Z,52.22
2022-12-29T19:10:33.049Z,53.15
2022-12-29T19:12:59.834Z,52.65
2022-12-29T19:15:28.723Z,52.29
2022-12-29T19:18:41.268Z,52.19
2022-12-29T19:20:43.903Z,52.43
2022-12-29T19:23:12.817Z,52.50
2022-12-29T19:25:40.096Z,52.74
2022-12-29T19:28:07.231Z,52.62
2022-12-29T19:30:35.408Z,52.48
2022-12-29T19:33:09.672Z,52.61
2022-12-29T19:35:37.618Z,52.47
2022-12-29T19:38:04.664Z,52.84
2022-12-29T19:40:31.947Z,53.06
2022-12-29T19:42:58.807Z,53.14
2022-12-29T19:45:25.941Z,53.01
2022-12-29T19:47:53.469Z,53.03
2022-12-29T19:50:20.781Z,53.01
2022-12-29T19:52:47.589Z,52.72
2022-12-29T19:55:15.808Z,52.86
2022-12-29T19:57:42.795Z,52.69
2022-12-29T20:00:10.962Z,52.71
2022-12-29T20:02:38.841Z,53.00
2022-12-29T20:05:06.857Z,52.87
2022-12-29T20:07:33.703Z,52.59
2022-12-29T20:10:00.813Z,52.54
2022-12-29T20:12:29.488Z,52.85
2022-12-29T20:14:57.396Z,52.91
2022-12-29T20:17:54.029Z,52.99
2022-12-29T20:20:11.391Z,53.36
2022-12-29T20:22:38.218Z,52.88
2022-12-29T20:25:43.078Z,53.30
2022-12-29T20:27:52.672Z,52.92
2022-12-29T20:30:19.746Z,52.65
2022-12-29T20:33:36.903Z,53.26
2022-12-29T20:36:25.166Z,53.25
2022-12-29T20:38:53.457Z,52.98
2022-12-29T20:41:21.429Z,53.33
2022-12-29T20:43:49.394Z,53.33
2022-12-29T20:46:21.925Z,53.18
2022-12-29T20:48:50.288Z,53.56
2022-12-29T20:51:18.486Z,53.64
2022-12-29T20:53:45.696Z,53.42
2022-12-29T20:56:18.290Z,53.68
2022-12-29T20:59:25.874Z,53.49
2022-12-29T21:01:33.152Z,53.81
2022-12-29T21:04:00.145Z,53.58
2022-12-29T21:06:27.326Z,53.42
2022-12-29T21:08:55.208Z,53.65
2022-12-29T21:11:22.447Z,53.39
2022-12-29T21:13:49.570Z,53.58
2022-12-29T21:16:19.006Z,53.85
2022-12-29T21:18:50.158Z,53.34
2022-12-29T21:21:26.556Z,53.05
2022-12-29T21:23:53.901Z,53.21
2022-12-29T21:26:23.005Z,53.17
2022-12-29T21:28:50.520Z,53.19
2022-12-29T21:31:20.848Z,52.94
2022-12-29T21:33:47.763Z,53.26
2022-12-29T21:36:14.827Z,53.19
2022-12-29T21:38:41.814Z,53.40
2022-12-29T21:41:12.998Z,53.46
2022-12-29T21:43:39.746Z,53.65
2022-12-29T21:46:07.067Z,53.42
2022-12-29T21:48:34.021Z,53.46
2022-12-29T21:51:30.602Z,52.93
2022-12-29T21:54:19.541Z,53.32
2022-12-29T21:56:47.263Z,53.09
2022-12-29T21:59:33.653Z,53.55
2022-12-29T22:02:20.022Z,53.58
2022-12-29T22:05:05.507Z,53.36
2022-12-29T22:07:51.329Z,53.28
2022-12-29T22:10:36.528Z,53.58
2022-12-29T22:13:03.722Z,53.25
2022-12-29T22:15:32.387Z,53.30
2022-12-29T22:17:59.945Z,53.47
2022-12-29T22:20:31.541Z,53.34
2022-12-29T22:22:58.636Z,53.07
2022-12-29T22:25:25.491Z,53.02
2022-12-29T22:27:58.593Z,53.37
2022-12-29T22:30:26.889Z,53.54
2022-12-29T22:32:53.998Z,53.41
2022-12-29T22:35:20.771Z,53.15
2022-12-29T22:37:47.839Z,53.39
2022-12-29T22:40:14.566Z,53.69
2022-12-29T22:42:41.663Z,53.80
2022-12-29T22:45:08.871Z,53.82
2022-12-29T22:47:36.018Z,53.70
2022-12-29T22:50:03.302Z,53.74
2022-12-29T22:52:30.377Z,53.51
2022-12-29T22:55:01.663Z,53.23
2022-12-29T22:57:31.911Z,53.72
2022-12-29T22:59:58.686Z,53.33
2022-12-29T23:02:26.150Z,53.52
2022-12-29T23:05:08.444Z,53.55
2022-12-29T23:07:35.730Z,53.80
2022-12-29T23:10:04.002Z,53.89
2022-12-29T23:12:31.571Z,54.01
2022-12-29T23:14:58.412Z,53.77
2022-12-29T23:17:25.583Z,53.63
2022-12-29T23:19:52.398Z,53.74
2022-12-29T23:22:19.600Z,53.55
2022-12-29T23:24:46.294Z,53.66
2022-12-29T23:27:13.328Z,53.48
2022-12-29T23:29:40.064Z,54.01
2022-12-29T23:32:07.087Z,53.65
2022-12-29T23:34:33.828Z,53.69
2022-12-29T23:37:00.853Z,53.67
2022-12-29T23:39:29.133Z,53.62
2022-12-29T23:41:56.282Z,53.99
2022-12-29T23:44:23.327Z,54.00
2022-12-29T23:46:50.612Z,53.93
2022-12-29T23:49:17.579Z,53.58
2022-12-29T23:51:44.590Z,53.88
2022-12-29T23:54:11.358Z,53.82
2022-12-29T23:56:38.469Z,53.92
2022-12-29T23:59:05.834Z,53.86
